sensor_id;sensor_type;location;lat;lon;timestamp;P1;durP1;ratioP1;P2;durP2;ratioP2
64799;SDS011;51233;51.982;4.594;2024-03-02T00:00:14;0.75;;;0.50;;
64799;SDS011;51233;51.982;4.594;2024-03-02T00:03:15;0.57;;;0.50;;
64799;SDS011;51233;51.982;4.594;2024-03-02T00:06:15;0.25;;;0.25;;
64799;SDS011;51233;51.982;4.594;2024-03-02T00:09:19;0.75;;;0.50;;
64799;SDS011;51233;51.982;4.594;2024-03-02T00:12:19;0.60;;;0.43;;
64799;SDS011;51233;51.982;4.594;2024-03-02T00:18:26;1.85;;;0.50;;
64799;SDS011;51233;51.982;4.594;2024-03-02T00:21:27;0.60;;;0.25;;
64799;SDS011;51233;51.982;4.594;2024-03-02T00:24:31;0.40;;;0.30;;
64799;SDS011;51233;51.982;4.594;2024-03-02T00:27:32;0.43;;;0.30;;
64799;SDS011;51233;51.982;4.594;2024-03-02T00:33:36;2.03;;;0.30;;
64799;SDS011;51233;51.982;4.594;2024-03-02T00:36:37;0.30;;;0.30;;
64799;SDS011;51233;51.982;4.594;2024-03-02T00:39:37;0.23;;;0.20;;
64799;SDS011;51233;51.982;4.594;2024-03-02T00:42:38;0.68;;;0.30;;
64799;SDS011;51233;51.982;4.594;2024-03-02T00:45:39;0.10;;;0.10;;
64799;SDS011;51233;51.982;4.594;2024-03-02T00:48:41;1.65;;;0.30;;
64799;SDS011;51233;51.982;4.594;2024-03-02T00:51:44;0.30;;;0.30;;
64799;SDS011;51233;51.982;4.594;2024-03-02T00:54:46;1.20;;;0.43;;
64799;SDS011;51233;51.982;4.594;2024-03-02T00:57:46;1.08;;;0.38;;
64799;SDS011;51233;51.982;4.594;2024-03-02T01:00:46;0.40;;;0.40;;
64799;SDS011;51233;51.982;4.594;2024-03-02T01:03:46;1.65;;;0.57;;
64799;SDS011;51233;51.982;4.594;2024-03-02T01:06:47;0.60;;;0.40;;
64799;SDS011;51233;51.982;4.594;2024-03-02T01:09:47;0.45;;;0.43;;
64799;SDS011;51233;51.982;4.594;2024-03-02T01:12:48;1.23;;;0.60;;
64799;SDS011;51233;51.982;4.594;2024-03-02T01:15:48;0.47;;;0.47;;
64799;SDS011;51233;51.982;4.594;2024-03-02T01:18:48;0.40;;;0.40;;
64799;SDS011;51233;51.982;4.594;2024-03-02T01:21:48;1.07;;;0.60;;
64799;SDS011;51233;51.982;4.594;2024-03-02T01:24:50;0.70;;;0.70;;
64799;SDS011;51233;51.982;4.594;2024-03-02T01:27:51;2.90;;;0.60;;
64799;SDS011;51233;51.982;4.594;2024-03-02T01:30:51;0.50;;;0.50;;
64799;SDS011;51233;51.982;4.594;2024-03-02T01:33:51;0.95;;;0.80;;
64799;SDS011;51233;51.982;4.594;2024-03-02T01:36:51;0.85;;;0.60;;
64799;SDS011;51233;51.982;4.594;2024-03-02T01:39:51;0.95;;;0.82;;
64799;SDS011;51233;51.982;4.594;2024-03-02T01:42:52;0.73;;;0.73;;
64799;SDS011;51233;51.982;4.594;2024-03-02T01:45:53;0.82;;;0.80;;
64799;SDS011;51233;51.982;4.594;2024-03-02T01:48:53;1.60;;;0.90;;
64799;SDS011;51233;51.982;4.594;2024-03-02T01:51:54;0.80;;;0.80;;
64799;SDS011;51233;51.982;4.594;2024-03-02T01:54:54;0.80;;;0.80;;
64799;SDS011;51233;51.982;4.594;2024-03-02T01:57:54;1.55;;;0.90;;
64799;SDS011;51233;51.982;4.594;2024-03-02T02:00:55;0.70;;;0.70;;
64799;SDS011;51233;51.982;4.594;2024-03-02T02:03:55;1.27;;;1.00;;
64799;SDS011;51233;51.982;4.594;2024-03-02T02:06:55;0.85;;;0.70;;
64799;SDS011;51233;51.982;4.594;2024-03-02T02:09:55;1.02;;;0.75;;
64799;SDS011;51233;51.982;4.594;2024-03-02T02:12:55;0.70;;;0.70;;
64799;SDS011;51233;51.982;4.594;2024-03-02T02:16:03;0.60;;;0.60;;
64799;SDS011;51233;51.982;4.594;2024-03-02T02:19:03;1.85;;;0.68;;
64799;SDS011;51233;51.982;4.594;2024-03-02T02:22:04;0.95;;;0.50;;
64799;SDS011;51233;51.982;4.594;2024-03-02T02:25:04;0.73;;;0.50;;
64799;SDS011;51233;51.982;4.594;2024-03-02T02:28:04;3.45;;;0.50;;
64799;SDS011;51233;51.982;4.594;2024-03-02T02:31:05;3.10;;;0.60;;
64799;SDS011;51233;51.982;4.594;2024-03-02T02:34:05;2.47;;;0.55;;
64799;SDS011;51233;51.982;4.594;2024-03-02T02:37:05;1.65;;;0.73;;
64799;SDS011;51233;51.982;4.594;2024-03-02T02:40:05;1.35;;;0.50;;
64799;SDS011;51233;51.982;4.594;2024-03-02T02:43:06;0.50;;;0.50;;
64799;SDS011;51233;51.982;4.594;2024-03-02T02:46:07;0.63;;;0.60;;
64799;SDS011;51233;51.982;4.594;2024-03-02T02:49:07;0.85;;;0.50;;
64799;SDS011;51233;51.982;4.594;2024-03-02T02:52:07;0.75;;;0.50;;
64799;SDS011;51233;51.982;4.594;2024-03-02T02:55:08;0.82;;;0.60;;
64799;SDS011;51233;51.982;4.594;2024-03-02T02:58:09;1.27;;;0.40;;
64799;SDS011;51233;51.982;4.594;2024-03-02T03:01:09;1.65;;;0.52;;
64799;SDS011;51233;51.982;4.594;2024-03-02T03:04:09;0.95;;;0.32;;
64799;SDS011;51233;51.982;4.594;2024-03-02T03:07:09;1.27;;;0.60;;
64799;SDS011;51233;51.982;4.594;2024-03-02T03:10:10;0.65;;;0.50;;
64799;SDS011;51233;51.982;4.594;2024-03-02T03:13:10;0.52;;;0.50;;
64799;SDS011;51233;51.982;4.594;2024-03-02T03:16:10;0.40;;;0.38;;
64799;SDS011;51233;51.982;4.594;2024-03-02T03:19:10;1.13;;;0.70;;
64799;SDS011;51233;51.982;4.594;2024-03-02T03:22:11;0.63;;;0.47;;
64799;SDS011;51233;51.982;4.594;2024-03-02T03:25:11;0.87;;;0.47;;
64799;SDS011;51233;51.982;4.594;2024-03-02T03:28:11;1.13;;;0.60;;
64799;SDS011;51233;51.982;4.594;2024-03-02T03:31:11;0.67;;;0.63;;
64799;SDS011;51233;51.982;4.594;2024-03-02T03:34:11;0.80;;;0.65;;
64799;SDS011;51233;51.982;4.594;2024-03-02T03:37:15;1.30;;;0.60;;
64799;SDS011;51233;51.982;4.594;2024-03-02T03:40:16;0.50;;;0.50;;
64799;SDS011;51233;51.982;4.594;2024-03-02T03:43:16;0.50;;;0.50;;
64799;SDS011;51233;51.982;4.594;2024-03-02T03:46:16;0.80;;;0.60;;
64799;SDS011;51233;51.982;4.594;2024-03-02T03:49:17;0.85;;;0.70;;
64799;SDS011;51233;51.982;4.594;2024-03-02T03:52:17;1.23;;;0.67;;
64799;SDS011;51233;51.982;4.594;2024-03-02T03:55:17;0.77;;;0.70;;
64799;SDS011;51233;51.982;4.594;2024-03-02T03:58:17;1.02;;;0.57;;
64799;SDS011;51233;51.982;4.594;2024-03-02T04:01:18;0.57;;;0.50;;
64799;SDS011;51233;51.982;4.594;2024-03-02T04:04:19;1.17;;;0.53;;
64799;SDS011;51233;51.982;4.594;2024-03-02T04:07:19;0.50;;;0.50;;
64799;SDS011;51233;51.982;4.594;2024-03-02T04:10:19;0.70;;;0.70;;
64799;SDS011;51233;51.982;4.594;2024-03-02T04:13:20;1.50;;;0.73;;
64799;SDS011;51233;51.982;4.594;2024-03-02T04:16:21;1.33;;;0.80;;
64799;SDS011;51233;51.982;4.594;2024-03-02T04:19:21;0.70;;;0.60;;
64799;SDS011;51233;51.982;4.594;2024-03-02T04:22:21;2.07;;;0.93;;
64799;SDS011;51233;51.982;4.594;2024-03-02T04:25:21;0.65;;;0.60;;
64799;SDS011;51233;51.982;4.594;2024-03-02T04:28:21;0.96;;;0.66;;
64799;SDS011;51233;51.982;4.594;2024-03-02T04:31:22;0.90;;;0.50;;
64799;SDS011;51233;51.982;4.594;2024-03-02T04:34:22;0.98;;;0.47;;
64799;SDS011;51233;51.982;4.594;2024-03-02T04:37:22;1.33;;;0.63;;
64799;SDS011;51233;51.982;4.594;2024-03-02T04:40:22;1.67;;;0.50;;
64799;SDS011;51233;51.982;4.594;2024-03-02T04:43:23;0.50;;;0.50;;
64799;SDS011;51233;51.982;4.594;2024-03-02T04:46:23;1.33;;;0.60;;
64799;SDS011;51233;51.982;4.594;2024-03-02T04:49:24;1.10;;;0.63;;
64799;SDS011;51233;51.982;4.594;2024-03-02T04:52:25;2.15;;;0.60;;
64799;SDS011;51233;51.982;4.594;2024-03-02T04:55:25;0.98;;;0.60;;
64799;SDS011;51233;51.982;4.594;2024-03-02T04:58:45;0.50;;;0.50;;
64799;SDS011;51233;51.982;4.594;2024-03-02T05:01:45;2.10;;;0.50;;
64799;SDS011;51233;51.982;4.594;2024-03-02T05:04:46;0.88;;;0.57;;
64799;SDS011;51233;51.982;4.594;2024-03-02T05:07:48;0.63;;;0.50;;
64799;SDS011;51233;51.982;4.594;2024-03-02T05:10:48;1.23;;;0.73;;
64799;SDS011;51233;51.982;4.594;2024-03-02T05:13:48;0.80;;;0.50;;
64799;SDS011;51233;51.982;4.594;2024-03-02T05:16:48;1.05;;;0.57;;
64799;SDS011;51233;51.982;4.594;2024-03-02T05:19:48;0.50;;;0.45;;
64799;SDS011;51233;51.982;4.594;2024-03-02T05:22:48;0.95;;;0.50;;
64799;SDS011;51233;51.982;4.594;2024-03-02T05:25:49;1.15;;;0.77;;
64799;SDS011;51233;51.982;4.594;2024-03-02T05:28:49;1.35;;;0.75;;
64799;SDS011;51233;51.982;4.594;2024-03-02T05:31:49;0.47;;;0.47;;
64799;SDS011;51233;51.982;4.594;2024-03-02T05:34:50;0.98;;;0.50;;
64799;SDS011;51233;51.982;4.594;2024-03-02T05:37:53;1.48;;;0.52;;
64799;SDS011;51233;51.982;4.594;2024-03-02T05:40:53;1.30;;;0.52;;
64799;SDS011;51233;51.982;4.594;2024-03-02T05:43:53;0.93;;;0.70;;
64799;SDS011;51233;51.982;4.594;2024-03-02T05:46:53;1.50;;;0.88;;
64799;SDS011;51233;51.982;4.594;2024-03-02T05:49:54;1.60;;;0.60;;
64799;SDS011;51233;51.982;4.594;2024-03-02T05:52:54;0.97;;;0.57;;
64799;SDS011;51233;51.982;4.594;2024-03-02T05:58:56;1.48;;;0.70;;
64799;SDS011;51233;51.982;4.594;2024-03-02T06:02:16;1.05;;;0.70;;
64799;SDS011;51233;51.982;4.594;2024-03-02T06:05:16;1.10;;;0.60;;
64799;SDS011;51233;51.982;4.594;2024-03-02T06:08:17;0.98;;;0.50;;
64799;SDS011;51233;51.982;4.594;2024-03-02T06:11:21;0.95;;;0.60;;
64799;SDS011;51233;51.982;4.594;2024-03-02T06:14:21;0.60;;;0.50;;
64799;SDS011;51233;51.982;4.594;2024-03-02T06:17:21;0.60;;;0.60;;
64799;SDS011;51233;51.982;4.594;2024-03-02T06:20:21;0.67;;;0.60;;
64799;SDS011;51233;51.982;4.594;2024-03-02T06:23:22;1.13;;;0.70;;
64799;SDS011;51233;51.982;4.594;2024-03-02T06:26:22;1.77;;;0.73;;
64799;SDS011;51233;51.982;4.594;2024-03-02T06:29:22;1.90;;;0.73;;
64799;SDS011;51233;51.982;4.594;2024-03-02T06:32:22;0.40;;;0.40;;
64799;SDS011;51233;51.982;4.594;2024-03-02T06:35:24;1.90;;;0.63;;
64799;SDS011;51233;51.982;4.594;2024-03-02T06:38:24;1.40;;;0.60;;
64799;SDS011;51233;51.982;4.594;2024-03-02T06:41:25;0.30;;;0.30;;
64799;SDS011;51233;51.982;4.594;2024-03-02T06:44:26;1.38;;;0.90;;
64799;SDS011;51233;51.982;4.594;2024-03-02T06:47:26;2.00;;;0.60;;
64799;SDS011;51233;51.982;4.594;2024-03-02T06:50:26;1.35;;;0.75;;
64799;SDS011;51233;51.982;4.594;2024-03-02T06:53:27;2.67;;;0.80;;
64799;SDS011;51233;51.982;4.594;2024-03-02T06:56:28;1.20;;;0.65;;
64799;SDS011;51233;51.982;4.594;2024-03-02T06:59:28;2.07;;;1.10;;
64799;SDS011;51233;51.982;4.594;2024-03-02T07:02:28;1.42;;;0.93;;
64799;SDS011;51233;51.982;4.594;2024-03-02T07:05:28;3.83;;;0.95;;
64799;SDS011;51233;51.982;4.594;2024-03-02T07:08:29;1.93;;;0.70;;
64799;SDS011;51233;51.982;4.594;2024-03-02T07:11:29;1.40;;;0.80;;
64799;SDS011;51233;51.982;4.594;2024-03-02T07:14:29;3.23;;;0.80;;
64799;SDS011;51233;51.982;4.594;2024-03-02T07:17:48;1.45;;;0.80;;
64799;SDS011;51233;51.982;4.594;2024-03-02T07:20:48;0.85;;;0.60;;
64799;SDS011;51233;51.982;4.594;2024-03-02T07:23:49;2.20;;;0.87;;
64799;SDS011;51233;51.982;4.594;2024-03-02T07:26:50;1.37;;;0.73;;
64799;SDS011;51233;51.982;4.594;2024-03-02T07:29:50;1.55;;;0.75;;
64799;SDS011;51233;51.982;4.594;2024-03-02T07:32:50;0.93;;;0.82;;
64799;SDS011;51233;51.982;4.594;2024-03-02T07:35:51;2.10;;;1.00;;
64799;SDS011;51233;51.982;4.594;2024-03-02T07:38:51;1.65;;;0.80;;
64799;SDS011;51233;51.982;4.594;2024-03-02T07:41:51;1.73;;;0.70;;
64799;SDS011;51233;51.982;4.594;2024-03-02T07:44:52;1.45;;;0.80;;
64799;SDS011;51233;51.982;4.594;2024-03-02T07:47:52;1.02;;;0.80;;
64799;SDS011;51233;51.982;4.594;2024-03-02T07:50:52;2.35;;;0.85;;
64799;SDS011;51233;51.982;4.594;2024-03-02T07:53:52;1.95;;;0.90;;
64799;SDS011;51233;51.982;4.594;2024-03-02T07:56:52;1.42;;;0.98;;
64799;SDS011;51233;51.982;4.594;2024-03-02T07:59:53;1.90;;;1.00;;
64799;SDS011;51233;51.982;4.594;2024-03-02T08:02:53;2.00;;;0.83;;
64799;SDS011;51233;51.982;4.594;2024-03-02T08:05:53;1.27;;;0.83;;
64799;SDS011;51233;51.982;4.594;2024-03-02T08:08:57;1.73;;;0.67;;
64799;SDS011;51233;51.982;4.594;2024-03-02T08:11:57;2.72;;;1.13;;
64799;SDS011;51233;51.982;4.594;2024-03-02T08:14:58;1.73;;;0.90;;
64799;SDS011;51233;51.982;4.594;2024-03-02T08:17:58;1.83;;;1.02;;
64799;SDS011;51233;51.982;4.594;2024-03-02T08:20:58;2.87;;;0.90;;
64799;SDS011;51233;51.982;4.594;2024-03-02T08:23:58;2.38;;;1.10;;
64799;SDS011;51233;51.982;4.594;2024-03-02T08:26:59;2.63;;;1.10;;
64799;SDS011;51233;51.982;4.594;2024-03-02T08:29:59;2.93;;;1.00;;
64799;SDS011;51233;51.982;4.594;2024-03-02T08:32:59;2.28;;;1.10;;
64799;SDS011;51233;51.982;4.594;2024-03-02T08:36:00;1.17;;;0.85;;
64799;SDS011;51233;51.982;4.594;2024-03-02T08:39:00;2.03;;;1.13;;
64799;SDS011;51233;51.982;4.594;2024-03-02T08:42:00;2.33;;;1.10;;
64799;SDS011;51233;51.982;4.594;2024-03-02T08:45:00;2.90;;;0.90;;
64799;SDS011;51233;51.982;4.594;2024-03-02T08:48:01;4.25;;;1.05;;
64799;SDS011;51233;51.982;4.594;2024-03-02T08:51:01;3.05;;;1.10;;
64799;SDS011;51233;51.982;4.594;2024-03-02T08:54:02;4.32;;;1.33;;
64799;SDS011;51233;51.982;4.594;2024-03-02T08:57:04;3.10;;;1.00;;
64799;SDS011;51233;51.982;4.594;2024-03-02T09:00:04;4.20;;;1.33;;
64799;SDS011;51233;51.982;4.594;2024-03-02T09:03:05;4.63;;;1.20;;
64799;SDS011;51233;51.982;4.594;2024-03-02T09:06:05;2.50;;;0.97;;
64799;SDS011;51233;51.982;4.594;2024-03-02T09:09:05;2.20;;;1.00;;
64799;SDS011;51233;51.982;4.594;2024-03-02T09:12:06;1.93;;;1.00;;
64799;SDS011;51233;51.982;4.594;2024-03-02T09:15:07;1.93;;;0.90;;
64799;SDS011;51233;51.982;4.594;2024-03-02T09:18:07;4.03;;;1.43;;
64799;SDS011;51233;51.982;4.594;2024-03-02T09:21:07;3.67;;;1.17;;
64799;SDS011;51233;51.982;4.594;2024-03-02T09:24:08;4.68;;;1.25;;
64799;SDS011;51233;51.982;4.594;2024-03-02T09:27:08;2.17;;;1.17;;
64799;SDS011;51233;51.982;4.594;2024-03-02T09:30:08;2.85;;;1.10;;
64799;SDS011;51233;51.982;4.594;2024-03-02T09:33:10;4.07;;;1.20;;
64799;SDS011;51233;51.982;4.594;2024-03-02T09:36:19;3.28;;;1.05;;
64799;SDS011;51233;51.982;4.594;2024-03-02T09:39:20;4.55;;;1.20;;
64799;SDS011;51233;51.982;4.594;2024-03-02T09:42:20;4.57;;;1.20;;
64799;SDS011;51233;51.982;4.594;2024-03-02T09:45:24;3.60;;;1.10;;
64799;SDS011;51233;51.982;4.594;2024-03-02T09:48:24;4.60;;;1.58;;
64799;SDS011;51233;51.982;4.594;2024-03-02T09:51:24;2.83;;;1.10;;
64799;SDS011;51233;51.982;4.594;2024-03-02T09:54:25;4.47;;;1.13;;
64799;SDS011;51233;51.982;4.594;2024-03-02T09:57:25;3.53;;;1.20;;
64799;SDS011;51233;51.982;4.594;2024-03-02T10:00:25;4.03;;;1.30;;
64799;SDS011;51233;51.982;4.594;2024-03-02T10:03:25;2.70;;;1.40;;
64799;SDS011;51233;51.982;4.594;2024-03-02T10:06:27;4.50;;;1.00;;
64799;SDS011;51233;51.982;4.594;2024-03-02T10:09:27;4.83;;;1.53;;
64799;SDS011;51233;51.982;4.594;2024-03-02T10:12:29;2.85;;;1.50;;
64799;SDS011;51233;51.982;4.594;2024-03-02T10:15:29;4.03;;;1.40;;
64799;SDS011;51233;51.982;4.594;2024-03-02T10:18:29;2.87;;;1.40;;
64799;SDS011;51233;51.982;4.594;2024-03-02T10:21:29;5.27;;;1.50;;
64799;SDS011;51233;51.982;4.594;2024-03-02T10:24:39;3.03;;;1.33;;
64799;SDS011;51233;51.982;4.594;2024-03-02T10:27:40;2.35;;;1.17;;
64799;SDS011;51233;51.982;4.594;2024-03-02T10:30:40;3.73;;;1.30;;
64799;SDS011;51233;51.982;4.594;2024-03-02T10:33:40;3.45;;;1.60;;
64799;SDS011;51233;51.982;4.594;2024-03-02T10:36:41;3.63;;;1.20;;
64799;SDS011;51233;51.982;4.594;2024-03-02T10:39:41;4.53;;;1.63;;
64799;SDS011;51233;51.982;4.594;2024-03-02T10:42:42;4.20;;;1.70;;
64799;SDS011;51233;51.982;4.594;2024-03-02T10:45:44;3.70;;;1.33;;
64799;SDS011;51233;51.982;4.594;2024-03-02T10:48:46;6.43;;;1.33;;
64799;SDS011;51233;51.982;4.594;2024-03-02T10:51:46;2.30;;;1.10;;
64799;SDS011;51233;51.982;4.594;2024-03-02T10:54:46;3.47;;;1.57;;
64799;SDS011;51233;51.982;4.594;2024-03-02T10:57:53;4.23;;;1.40;;
64799;SDS011;51233;51.982;4.594;2024-03-02T11:00:53;3.13;;;1.00;;
64799;SDS011;51233;51.982;4.594;2024-03-02T11:03:54;3.83;;;1.00;;
64799;SDS011;51233;51.982;4.594;2024-03-02T11:06:56;3.20;;;1.30;;
64799;SDS011;51233;51.982;4.594;2024-03-02T11:09:59;2.42;;;1.10;;
64799;SDS011;51233;51.982;4.594;2024-03-02T11:13:01;2.88;;;1.30;;
64799;SDS011;51233;51.982;4.594;2024-03-02T11:16:16;3.67;;;1.40;;
64799;SDS011;51233;51.982;4.594;2024-03-02T11:19:18;2.97;;;1.23;;
64799;SDS011;51233;51.982;4.594;2024-03-02T11:22:18;4.17;;;1.30;;
64799;SDS011;51233;51.982;4.594;2024-03-02T11:25:22;3.73;;;1.37;;
64799;SDS011;51233;51.982;4.594;2024-03-02T11:28:34;3.88;;;1.58;;
64799;SDS011;51233;51.982;4.594;2024-03-02T11:34:54;4.15;;;1.20;;
64799;SDS011;51233;51.982;4.594;2024-03-02T11:37:55;2.60;;;1.23;;
64799;SDS011;51233;51.982;4.594;2024-03-02T11:40:56;3.90;;;1.33;;
64799;SDS011;51233;51.982;4.594;2024-03-02T11:43:56;3.57;;;0.97;;
64799;SDS011;51233;51.982;4.594;2024-03-02T11:46:59;4.05;;;1.20;;
64799;SDS011;51233;51.982;4.594;2024-03-02T11:50:00;2.67;;;1.27;;
64799;SDS011;51233;51.982;4.594;2024-03-02T11:53:00;5.73;;;1.37;;
64799;SDS011;51233;51.982;4.594;2024-03-02T11:56:00;3.77;;;1.30;;
64799;SDS011;51233;51.982;4.594;2024-03-02T11:59:02;4.47;;;1.10;;
64799;SDS011;51233;51.982;4.594;2024-03-02T12:02:02;2.93;;;1.47;;
64799;SDS011;51233;51.982;4.594;2024-03-02T12:05:02;3.13;;;1.30;;
64799;SDS011;51233;51.982;4.594;2024-03-02T12:08:04;3.20;;;1.38;;
64799;SDS011;51233;51.982;4.594;2024-03-02T12:11:05;2.65;;;1.10;;
64799;SDS011;51233;51.982;4.594;2024-03-02T12:14:10;4.13;;;1.00;;
64799;SDS011;51233;51.982;4.594;2024-03-02T12:17:12;4.35;;;1.40;;
64799;SDS011;51233;51.982;4.594;2024-03-02T12:20:12;3.38;;;1.20;;
64799;SDS011;51233;51.982;4.594;2024-03-02T12:23:12;4.27;;;1.30;;
64799;SDS011;51233;51.982;4.594;2024-03-02T12:26:13;2.43;;;1.30;;
64799;SDS011;51233;51.982;4.594;2024-03-02T12:29:13;3.63;;;1.47;;
64799;SDS011;51233;51.982;4.594;2024-03-02T12:32:15;3.22;;;1.20;;
64799;SDS011;51233;51.982;4.594;2024-03-02T12:35:15;2.73;;;1.10;;
64799;SDS011;51233;51.982;4.594;2024-03-02T12:38:15;3.70;;;1.30;;
64799;SDS011;51233;51.982;4.594;2024-03-02T12:41:16;3.60;;;1.30;;
64799;SDS011;51233;51.982;4.594;2024-03-02T12:44:17;2.37;;;1.17;;
64799;SDS011;51233;51.982;4.594;2024-03-02T12:47:17;4.00;;;1.35;;
64799;SDS011;51233;51.982;4.594;2024-03-02T12:50:18;2.97;;;1.10;;
64799;SDS011;51233;51.982;4.594;2024-03-02T12:53:18;3.27;;;1.40;;
64799;SDS011;51233;51.982;4.594;2024-03-02T12:56:19;4.00;;;1.67;;
64799;SDS011;51233;51.982;4.594;2024-03-02T12:59:20;4.00;;;1.23;;
64799;SDS011;51233;51.982;4.594;2024-03-02T13:02:22;5.82;;;1.38;;
64799;SDS011;51233;51.982;4.594;2024-03-02T13:05:22;4.53;;;1.30;;
64799;SDS011;51233;51.982;4.594;2024-03-02T13:08:22;4.90;;;1.37;;
64799;SDS011;51233;51.982;4.594;2024-03-02T13:11:23;6.27;;;1.43;;
64799;SDS011;51233;51.982;4.594;2024-03-02T13:14:24;2.65;;;1.13;;
64799;SDS011;51233;51.982;4.594;2024-03-02T13:17:27;2.47;;;1.40;;
64799;SDS011;51233;51.982;4.594;2024-03-02T13:20:31;1.77;;;1.10;;
64799;SDS011;51233;51.982;4.594;2024-03-02T13:23:35;2.92;;;1.10;;
64799;SDS011;51233;51.982;4.594;2024-03-02T13:26:35;5.20;;;1.40;;
64799;SDS011;51233;51.982;4.594;2024-03-02T13:29:35;2.63;;;1.10;;
64799;SDS011;51233;51.982;4.594;2024-03-02T13:32:37;3.28;;;1.30;;
64799;SDS011;51233;51.982;4.594;2024-03-02T13:35:37;3.50;;;1.30;;
64799;SDS011;51233;51.982;4.594;2024-03-02T13:38:37;5.15;;;1.42;;
64799;SDS011;51233;51.982;4.594;2024-03-02T13:41:37;2.40;;;1.00;;
64799;SDS011;51233;51.982;4.594;2024-03-02T13:44:37;2.73;;;1.00;;
64799;SDS011;51233;51.982;4.594;2024-03-02T13:47:38;3.23;;;1.40;;
64799;SDS011;51233;51.982;4.594;2024-03-02T13:50:38;3.65;;;1.20;;
64799;SDS011;51233;51.982;4.594;2024-03-02T13:53:38;3.80;;;1.08;;
64799;SDS011;51233;51.982;4.594;2024-03-02T13:56:38;2.42;;;1.17;;
64799;SDS011;51233;51.982;4.594;2024-03-02T13:59:41;3.42;;;1.10;;
64799;SDS011;51233;51.982;4.594;2024-03-02T14:02:41;2.53;;;1.10;;
64799;SDS011;51233;51.982;4.594;2024-03-02T14:05:42;3.33;;;1.33;;
64799;SDS011;51233;51.982;4.594;2024-03-02T14:08:43;1.83;;;0.93;;
64799;SDS011;51233;51.982;4.594;2024-03-02T14:11:45;4.95;;;1.20;;
64799;SDS011;51233;51.982;4.594;2024-03-02T14:14:45;2.00;;;1.02;;
64799;SDS011;51233;51.982;4.594;2024-03-02T14:17:45;5.67;;;1.23;;
64799;SDS011;51233;51.982;4.594;2024-03-02T14:20:45;3.13;;;1.20;;
64799;SDS011;51233;51.982;4.594;2024-03-02T14:23:48;5.80;;;1.20;;
64799;SDS011;51233;51.982;4.594;2024-03-02T14:26:48;3.75;;;1.10;;
64799;SDS011;51233;51.982;4.594;2024-03-02T14:29:49;3.03;;;1.10;;
64799;SDS011;51233;51.982;4.594;2024-03-02T14:32:49;4.67;;;0.90;;
64799;SDS011;51233;51.982;4.594;2024-03-02T14:35:50;2.45;;;1.10;;
64799;SDS011;51233;51.982;4.594;2024-03-02T14:38:50;2.77;;;1.07;;
64799;SDS011;51233;51.982;4.594;2024-03-02T14:41:51;3.43;;;1.20;;
64799;SDS011;51233;51.982;4.594;2024-03-02T14:44:51;3.03;;;1.00;;
64799;SDS011;51233;51.982;4.594;2024-03-02T14:47:51;3.08;;;1.00;;
64799;SDS011;51233;51.982;4.594;2024-03-02T14:50:52;2.40;;;1.10;;
64799;SDS011;51233;51.982;4.594;2024-03-02T14:53:52;3.70;;;1.20;;
64799;SDS011;51233;51.982;4.594;2024-03-02T14:56:52;3.57;;;1.03;;
64799;SDS011;51233;51.982;4.594;2024-03-02T14:59:52;2.13;;;1.10;;
64799;SDS011;51233;51.982;4.594;2024-03-02T15:02:54;2.42;;;1.08;;
64799;SDS011;51233;51.982;4.594;2024-03-02T15:05:54;1.70;;;0.70;;
64799;SDS011;51233;51.982;4.594;2024-03-02T15:08:54;2.17;;;1.00;;
64799;SDS011;51233;51.982;4.594;2024-03-02T15:11:55;2.83;;;1.10;;
64799;SDS011;51233;51.982;4.594;2024-03-02T15:14:55;3.97;;;1.30;;
64799;SDS011;51233;51.982;4.594;2024-03-02T15:17:55;2.35;;;1.17;;
64799;SDS011;51233;51.982;4.594;2024-03-02T15:20:55;5.07;;;1.30;;
64799;SDS011;51233;51.982;4.594;2024-03-02T15:23:56;3.83;;;1.57;;
64799;SDS011;51233;51.982;4.594;2024-03-02T15:26:56;3.03;;;1.20;;
64799;SDS011;51233;51.982;4.594;2024-03-02T15:29:57;3.97;;;1.10;;
64799;SDS011;51233;51.982;4.594;2024-03-02T15:32:57;3.03;;;1.27;;
64799;SDS011;51233;51.982;4.594;2024-03-02T15:35:58;4.10;;;1.27;;
64799;SDS011;51233;51.982;4.594;2024-03-02T15:38:59;4.05;;;1.20;;
64799;SDS011;51233;51.982;4.594;2024-03-02T15:42:00;4.53;;;1.20;;
64799;SDS011;51233;51.982;4.594;2024-03-02T15:45:01;4.87;;;1.20;;
64799;SDS011;51233;51.982;4.594;2024-03-02T15:48:02;3.57;;;1.10;;
64799;SDS011;51233;51.982;4.594;2024-03-02T15:51:02;1.97;;;0.77;;
64799;SDS011;51233;51.982;4.594;2024-03-02T15:54:04;2.92;;;1.00;;
64799;SDS011;51233;51.982;4.594;2024-03-02T15:57:04;2.77;;;1.00;;
64799;SDS011;51233;51.982;4.594;2024-03-02T16:00:05;2.90;;;1.30;;
64799;SDS011;51233;51.982;4.594;2024-03-02T16:03:05;2.97;;;1.10;;
64799;SDS011;51233;51.982;4.594;2024-03-02T16:06:05;2.23;;;0.87;;
64799;SDS011;51233;51.982;4.594;2024-03-02T16:09:06;3.53;;;1.30;;
64799;SDS011;51233;51.982;4.594;2024-03-02T16:12:12;2.72;;;0.95;;
64799;SDS011;51233;51.982;4.594;2024-03-02T16:15:13;2.65;;;1.20;;
64799;SDS011;51233;51.982;4.594;2024-03-02T16:18:14;3.10;;;1.30;;
64799;SDS011;51233;51.982;4.594;2024-03-02T16:21:14;3.57;;;1.70;;
64799;SDS011;51233;51.982;4.594;2024-03-02T16:24:14;3.53;;;1.90;;
64799;SDS011;51233;51.982;4.594;2024-03-02T16:27:15;4.10;;;2.20;;
64799;SDS011;51233;51.982;4.594;2024-03-02T16:30:15;4.67;;;2.10;;
64799;SDS011;51233;51.982;4.594;2024-03-02T16:33:15;2.67;;;2.10;;
64799;SDS011;51233;51.982;4.594;2024-03-02T16:36:16;7.22;;;1.80;;
64799;SDS011;51233;51.982;4.594;2024-03-02T16:39:17;3.27;;;1.40;;
64799;SDS011;51233;51.982;4.594;2024-03-02T16:42:17;2.33;;;1.40;;
64799;SDS011;51233;51.982;4.594;2024-03-02T16:45:20;3.08;;;1.27;;
64799;SDS011;51233;51.982;4.594;2024-03-02T16:48:20;6.43;;;1.70;;
64799;SDS011;51233;51.982;4.594;2024-03-02T16:51:20;5.87;;;1.73;;
64799;SDS011;51233;51.982;4.594;2024-03-02T16:54:20;5.30;;;1.45;;
64799;SDS011;51233;51.982;4.594;2024-03-02T16:57:20;3.58;;;1.67;;
64799;SDS011;51233;51.982;4.594;2024-03-02T17:00:21;3.92;;;1.60;;
64799;SDS011;51233;51.982;4.594;2024-03-02T17:03:21;2.10;;;1.67;;
64799;SDS011;51233;51.982;4.594;2024-03-02T17:06:21;2.94;;;1.66;;
64799;SDS011;51233;51.982;4.594;2024-03-02T17:09:22;3.87;;;1.83;;
64799;SDS011;51233;51.982;4.594;2024-03-02T17:12:22;2.77;;;1.50;;
64799;SDS011;51233;51.982;4.594;2024-03-02T17:15:23;4.83;;;2.30;;
64799;SDS011;51233;51.982;4.594;2024-03-02T17:18:23;5.10;;;3.07;;
64799;SDS011;51233;51.982;4.594;2024-03-02T17:21:23;6.47;;;3.88;;
64799;SDS011;51233;51.982;4.594;2024-03-02T17:24:25;5.43;;;2.90;;
64799;SDS011;51233;51.982;4.594;2024-03-02T17:27:25;2.65;;;1.90;;
64799;SDS011;51233;51.982;4.594;2024-03-02T17:30:26;2.03;;;1.33;;
64799;SDS011;51233;51.982;4.594;2024-03-02T17:33:26;2.42;;;1.52;;
64799;SDS011;51233;51.982;4.594;2024-03-02T17:36:27;1.85;;;1.33;;
64799;SDS011;51233;51.982;4.594;2024-03-02T17:39:29;2.60;;;1.47;;
64799;SDS011;51233;51.982;4.594;2024-03-02T17:42:29;2.35;;;1.70;;
64799;SDS011;51233;51.982;4.594;2024-03-02T17:45:32;2.65;;;1.33;;
64799;SDS011;51233;51.982;4.594;2024-03-02T17:48:33;4.40;;;1.63;;
64799;SDS011;51233;51.982;4.594;2024-03-02T17:51:33;2.58;;;1.50;;
64799;SDS011;51233;51.982;4.594;2024-03-02T17:54:34;2.27;;;1.37;;
64799;SDS011;51233;51.982;4.594;2024-03-02T17:57:35;1.42;;;1.20;;
64799;SDS011;51233;51.982;4.594;2024-03-02T18:00:36;1.98;;;1.60;;
64799;SDS011;51233;51.982;4.594;2024-03-02T18:03:37;3.27;;;1.60;;
64799;SDS011;51233;51.982;4.594;2024-03-02T18:06:37;2.33;;;1.50;;
64799;SDS011;51233;51.982;4.594;2024-03-02T18:09:37;1.98;;;1.35;;
64799;SDS011;51233;51.982;4.594;2024-03-02T18:12:37;4.50;;;1.42;;
64799;SDS011;51233;51.982;4.594;2024-03-02T18:15:41;2.42;;;1.35;;
64799;SDS011;51233;51.982;4.594;2024-03-02T18:18:41;2.15;;;1.40;;
64799;SDS011;51233;51.982;4.594;2024-03-02T18:21:41;1.33;;;1.00;;